sensor_id;sensor_type;location;lat;lon;timestamp;temperature;humidity
16408;DHT22;8313;49.894;8.084;2023-06-14T00:00:12;21.10;56.60
16408;DHT22;8313;49.894;8.084;2023-06-14T00:02:39;21.10;56.60
16408;DHT22;8313;49.894;8.084;2023-06-14T00:05:08;21.10;56.50
16408;DHT22;8313;49.894;8.084;2023-06-14T00:07:35;21.10;56.50
16408;DHT22;8313;49.894;8.084;2023-06-14T00:10:05;21.10;56.60
16408;DHT22;8313;49.894;8.084;2023-06-14T00:12:31;21.10;56.50
16408;DHT22;8313;49.894;8.084;2023-06-14T00:14:57;21.10;56.50
16408;DHT22;8313;49.894;8.084;2023-06-14T00:17:22;21.10;56.30
16408;DHT22;8313;49.894;8.084;2023-06-14T00:19:49;21.10;56.30
16408;DHT22;8313;49.894;8.084;2023-06-14T00:22:14;21.10;56.30
16408;DHT22;8313;49.894;8.084;2023-06-14T00:24:40;21.00;56.30
16408;DHT22;8313;49.894;8.084;2023-06-14T00:27:06;21.00;56.30
16408;DHT22;8313;49.894;8.084;2023-06-14T00:29:32;21.00;56.30
16408;DHT22;8313;49.894;8.084;2023-06-14T00:31:58;21.00;56.30
16408;DHT22;8313;49.894;8.084;2023-06-14T00:34:26;20.90;56.50
16408;DHT22;8313;49.894;8.084;2023-06-14T00:36:51;21.00;56.50
16408;DHT22;8313;49.894;8.084;2023-06-14T00:39:17;21.00;56.30
16408;DHT22;8313;49.894;8.084;2023-06-14T00:41:42;21.00;56.30
16408;DHT22;8313;49.894;8.084;2023-06-14T00:44:08;21.00;56.70
16408;DHT22;8313;49.894;8.084;2023-06-14T00:46:34;20.90;56.40
16408;DHT22;8313;49.894;8.084;2023-06-14T00:49:00;20.90;56.30
16408;DHT22;8313;49.894;8.084;2023-06-14T00:51:26;20.80;56.40
16408;DHT22;8313;49.894;8.084;2023-06-14T00:53:53;20.80;56.30
16408;DHT22;8313;49.894;8.084;2023-06-14T00:56:18;20.80;56.20
16408;DHT22;8313;49.894;8.084;2023-06-14T00:58:49;20.60;56.50
16408;DHT22;8313;49.894;8.084;2023-06-14T01:01:16;20.60;56.40
16408;DHT22;8313;49.894;8.084;2023-06-14T01:03:42;20.60;56.40
16408;DHT22;8313;49.894;8.084;2023-06-14T01:11:36;20.50;56.30
16408;DHT22;8313;49.894;8.084;2023-06-14T01:14:05;20.40;56.50
16408;DHT22;8313;49.894;8.084;2023-06-14T01:16:31;20.30;56.60
16408;DHT22;8313;49.894;8.084;2023-06-14T01:18:58;20.30;56.50
16408;DHT22;8313;49.894;8.084;2023-06-14T01:21:24;20.30;56.50
16408;DHT22;8313;49.894;8.084;2023-06-14T01:23:51;20.30;56.40
16408;DHT22;8313;49.894;8.084;2023-06-14T01:26:19;20.30;56.50
16408;DHT22;8313;49.894;8.084;2023-06-14T01:28:46;20.20;56.40
16408;DHT22;8313;49.894;8.084;2023-06-14T01:31:17;20.20;56.50
16408;DHT22;8313;49.894;8.084;2023-06-14T01:33:44;20.20;56.40
16408;DHT22;8313;49.894;8.084;2023-06-14T01:36:11;20.20;56.30
16408;DHT22;8313;49.894;8.084;2023-06-14T01:38:38;20.20;56.40
16408;DHT22;8313;49.894;8.084;2023-06-14T01:41:04;20.20;56.30
16408;DHT22;8313;49.894;8.084;2023-06-14T01:43:31;20.20;56.40
16408;DHT22;8313;49.894;8.084;2023-06-14T01:45:57;20.10;56.50
16408;DHT22;8313;49.894;8.084;2023-06-14T01:48:26;20.10;56.40
16408;DHT22;8313;49.894;8.084;2023-06-14T01:50:53;20.20;56.40
16408;DHT22;8313;49.894;8.084;2023-06-14T01:53:19;20.10;56.40
16408;DHT22;8313;49.894;8.084;2023-06-14T01:55:46;20.00;56.50
16408;DHT22;8313;49.894;8.084;2023-06-14T01:58:14;20.00;56.60
16408;DHT22;8313;49.894;8.084;2023-06-14T02:00:41;20.00;56.50
16408;DHT22;8313;49.894;8.084;2023-06-14T02:03:09;20.00;56.70
16408;DHT22;8313;49.894;8.084;2023-06-14T02:05:34;19.90;56.40
16408;DHT22;8313;49.894;8.084;2023-06-14T02:08:00;19.90;56.50
16408;DHT22;8313;49.894;8.084;2023-06-14T02:10:26;19.90;56.50
16408;DHT22;8313;49.894;8.084;2023-06-14T02:12:54;19.90;56.60
16408;DHT22;8313;49.894;8.084;2023-06-14T02:15:20;19.90;56.50
16408;DHT22;8313;49.894;8.084;2023-06-14T02:17:47;19.80;56.70
16408;DHT22;8313;49.894;8.084;2023-06-14T02:20:16;19.80;56.50
16408;DHT22;8313;49.894;8.084;2023-06-14T02:22:42;19.90;56.60
16408;DHT22;8313;49.894;8.084;2023-06-14T02:25:08;19.80;56.60
16408;DHT22;8313;49.894;8.084;2023-06-14T02:27:34;19.80;56.50
16408;DHT22;8313;49.894;8.084;2023-06-14T02:30:00;19.80;56.60
16408;DHT22;8313;49.894;8.084;2023-06-14T02:32:26;19.70;56.80
16408;DHT22;8313;49.894;8.084;2023-06-14T02:34:55;19.70;56.80
16408;DHT22;8313;49.894;8.084;2023-06-14T02:37:21;19.70;56.60
16408;DHT22;8313;49.894;8.084;2023-06-14T02:39:46;19.70;56.70
16408;DHT22;8313;49.894;8.084;2023-06-14T02:42:12;19.70;56.40
16408;DHT22;8313;49.894;8.084;2023-06-14T02:44:38;19.70;56.60
16408;DHT22;8313;49.894;8.084;2023-06-14T02:47:04;19.70;56.60
16408;DHT22;8313;49.894;8.084;2023-06-14T02:49:30;19.70;56.70
16408;DHT22;8313;49.894;8.084;2023-06-14T02:51:56;19.60;56.90
16408;DHT22;8313;49.894;8.084;2023-06-14T02:54:22;19.60;56.80
16408;DHT22;8313;49.894;8.084;2023-06-14T02:56:47;19.60;56.80
16408;DHT22;8313;49.894;8.084;2023-06-14T02:59:13;19.50;56.80
16408;DHT22;8313;49.894;8.084;2023-06-14T03:01:40;19.50;56.70
16408;DHT22;8313;49.894;8.084;2023-06-14T03:04:09;19.50;56.90
16408;DHT22;8313;49.894;8.084;2023-06-14T03:06:37;19.50;57.00
16408;DHT22;8313;49.894;8.084;2023-06-14T03:09:04;19.50;57.00
16408;DHT22;8313;49.894;8.084;2023-06-14T03:11:36;19.40;56.80
16408;DHT22;8313;49.894;8.084;2023-06-14T03:14:02;19.50;57.00
16408;DHT22;8313;49.894;8.084;2023-06-14T03:16:34;19.40;57.00
16408;DHT22;8313;49.894;8.084;2023-06-14T03:19:00;19.30;57.10
16408;DHT22;8313;49.894;8.084;2023-06-14T03:21:30;19.30;56.90
16408;DHT22;8313;49.894;8.084;2023-06-14T03:23:58;19.30;57.10
16408;DHT22;8313;49.894;8.084;2023-06-14T03:26:25;19.20;57.10
16408;DHT22;8313;49.894;8.084;2023-06-14T03:28:53;19.20;57.20
16408;DHT22;8313;49.894;8.084;2023-06-14T03:31:19;19.20;57.30
16408;DHT22;8313;49.894;8.084;2023-06-14T03:33:45;19.20;57.20
16408;DHT22;8313;49.894;8.084;2023-06-14T03:36:12;19.20;57.10
16408;DHT22;8313;49.894;8.084;2023-06-14T03:38:37;19.20;57.00
16408;DHT22;8313;49.894;8.084;2023-06-14T03:41:04;19.30;57.00
16408;DHT22;8313;49.894;8.084;2023-06-14T03:43:31;19.20;57.10
16408;DHT22;8313;49.894;8.084;2023-06-14T03:45:57;19.20;57.30
16408;DHT22;8313;49.894;8.084;2023-06-14T03:48:24;19.10;57.30
16408;DHT22;8313;49.894;8.084;2023-06-14T03:50:51;19.20;57.40
16408;DHT22;8313;49.894;8.084;2023-06-14T03:53:17;19.20;57.30
16408;DHT22;8313;49.894;8.084;2023-06-14T03:55:47;19.20;57.70
16408;DHT22;8313;49.894;8.084;2023-06-14T03:58:15;19.10;57.60
16408;DHT22;8313;49.894;8.084;2023-06-14T04:00:41;19.10;57.60
16408;DHT22;8313;49.894;8.084;2023-06-14T04:03:08;19.10;57.50
16408;DHT22;8313;49.894;8.084;2023-06-14T04:05:35;19.10;57.50
16408;DHT22;8313;49.894;8.084;2023-06-14T04:08:01;19.10;57.80
16408;DHT22;8313;49.894;8.084;2023-06-14T04:10:30;19.10;57.60
16408;DHT22;8313;49.894;8.084;2023-06-14T04:12:56;19.00;57.60
16408;DHT22;8313;49.894;8.084;2023-06-14T04:15:21;19.10;57.80
16408;DHT22;8313;49.894;8.084;2023-06-14T04:17:48;19.10;57.90
16408;DHT22;8313;49.894;8.084;2023-06-14T04:20:15;19.00;57.90
16408;DHT22;8313;49.894;8.084;2023-06-14T04:22:42;19.10;57.90
16408;DHT22;8313;49.894;8.084;2023-06-14T04:25:11;19.10;57.90
16408;DHT22;8313;49.894;8.084;2023-06-14T04:27:38;19.00;58.10
16408;DHT22;8313;49.894;8.084;2023-06-14T04:30:05;19.00;58.30
16408;DHT22;8313;49.894;8.084;2023-06-14T04:32:38;19.00;58.30
16408;DHT22;8313;49.894;8.084;2023-06-14T04:35:08;19.10;58.10
16408;DHT22;8313;49.894;8.084;2023-06-14T04:37:36;19.10;58.40
16408;DHT22;8313;49.894;8.084;2023-06-14T04:40:10;19.10;58.50
16408;DHT22;8313;49.894;8.084;2023-06-14T04:42:37;19.20;58.30
16408;DHT22;8313;49.894;8.084;2023-06-14T04:45:05;19.20;58.00
16408;DHT22;8313;49.894;8.084;2023-06-14T04:47:32;19.20;58.30
16408;DHT22;8313;49.894;8.084;2023-06-14T04:49:59;19.30;58.20
16408;DHT22;8313;49.894;8.084;2023-06-14T04:52:30;19.30;58.20
16408;DHT22;8313;49.894;8.084;2023-06-14T04:54:57;19.40;58.40
16408;DHT22;8313;49.894;8.084;2023-06-14T04:57:23;19.40;58.30
16408;DHT22;8313;49.894;8.084;2023-06-14T04:59:53;19.40;58.20
16408;DHT22;8313;49.894;8.084;2023-06-14T05:02:24;19.40;58.10
16408;DHT22;8313;49.894;8.084;2023-06-14T05:04:51;19.40;58.40
16408;DHT22;8313;49.894;8.084;2023-06-14T05:07:17;19.50;58.30
16408;DHT22;8313;49.894;8.084;2023-06-14T05:09:45;19.50;58.40
16408;DHT22;8313;49.894;8.084;2023-06-14T05:12:12;19.60;58.50
16408;DHT22;8313;49.894;8.084;2023-06-14T05:14:39;19.60;58.40
16408;DHT22;8313;49.894;8.084;2023-06-14T05:17:05;19.60;58.50
16408;DHT22;8313;49.894;8.084;2023-06-14T05:19:31;19.60;58.50
16408;DHT22;8313;49.894;8.084;2023-06-14T05:21:57;19.70;59.00
16408;DHT22;8313;49.894;8.084;2023-06-14T05:24:23;19.70;58.60
16408;DHT22;8313;49.894;8.084;2023-06-14T05:26:48;19.70;59.00
16408;DHT22;8313;49.894;8.084;2023-06-14T05:29:14;19.70;59.10
16408;DHT22;8313;49.894;8.084;2023-06-14T05:31:40;19.80;59.10
16408;DHT22;8313;49.894;8.084;2023-06-14T05:34:06;19.80;58.80
16408;DHT22;8313;49.894;8.084;2023-06-14T05:36:31;19.80;59.20
16408;DHT22;8313;49.894;8.084;2023-06-14T05:38:57;19.90;59.00
16408;DHT22;8313;49.894;8.084;2023-06-14T05:41:28;19.90;59.40
16408;DHT22;8313;49.894;8.084;2023-06-14T05:43:55;20.00;59.30
16408;DHT22;8313;49.894;8.084;2023-06-14T05:46:21;20.10;59.50
16408;DHT22;8313;49.894;8.084;2023-06-14T05:48:51;20.10;60.00
16408;DHT22;8313;49.894;8.084;2023-06-14T05:51:17;20.10;59.20
16408;DHT22;8313;49.894;8.084;2023-06-14T05:53:46;20.20;59.90
16408;DHT22;8313;49.894;8.084;2023-06-14T05:56:13;20.30;59.70
16408;DHT22;8313;49.894;8.084;2023-06-14T05:58:39;20.30;59.80
16408;DHT22;8313;49.894;8.084;2023-06-14T06:01:04;20.30;60.30
16408;DHT22;8313;49.894;8.084;2023-06-14T06:03:30;20.30;60.00
16408;DHT22;8313;49.894;8.084;2023-06-14T06:05:56;20.40;59.80
16408;DHT22;8313;49.894;8.084;2023-06-14T06:08:22;20.50;60.60
16408;DHT22;8313;49.894;8.084;2023-06-14T06:10:47;20.60;60.10
16408;DHT22;8313;49.894;8.084;2023-06-14T06:13:13;20.70;60.10
16408;DHT22;8313;49.894;8.084;2023-06-14T06:15:38;20.70;60.90
16408;DHT22;8313;49.894;8.084;2023-06-14T06:18:04;20.80;59.90
16408;DHT22;8313;49.894;8.084;2023-06-14T06:20:30;20.80;60.10
16408;DHT22;8313;49.894;8.084;2023-06-14T06:22:59;21.00;59.80
16408;DHT22;8313;49.894;8.084;2023-06-14T06:25:26;21.00;59.70
16408;DHT22;8313;49.894;8.084;2023-06-14T06:27:55;21.00;59.60
16408;DHT22;8313;49.894;8.084;2023-06-14T06:30:24;21.00;59.50
16408;DHT22;8313;49.894;8.084;2023-06-14T06:32:50;21.00;59.40
16408;DHT22;8313;49.894;8.084;2023-06-14T06:35:16;21.00;59.50
16408;DHT22;8313;49.894;8.084;2023-06-14T06:37:42;21.10;59.70
16408;DHT22;8313;49.894;8.084;2023-06-14T06:40:09;21.20;59.70
16408;DHT22;8313;49.894;8.084;2023-06-14T06:42:35;21.20;59.30
16408;DHT22;8313;49.894;8.084;2023-06-14T06:45:04;21.30;59.40
16408;DHT22;8313;49.894;8.084;2023-06-14T06:47:30;21.30;59.30
16408;DHT22;8313;49.894;8.084;2023-06-14T06:49:55;21.30;59.40
16408;DHT22;8313;49.894;8.084;2023-06-14T06:52:21;21.30;59.10
16408;DHT22;8313;49.894;8.084;2023-06-14T06:54:47;21.30;59.30
16408;DHT22;8313;49.894;8.084;2023-06-14T06:57:12;21.40;59.30
16408;DHT22;8313;49.894;8.084;2023-06-14T06:59:38;21.40;59.20
16408;DHT22;8313;49.894;8.084;2023-06-14T07:02:04;21.50;59.30
16408;DHT22;8313;49.894;8.084;2023-06-14T07:04:30;21.50;59.40
16408;DHT22;8313;49.894;8.084;2023-06-14T07:06:56;21.50;59.40
16408;DHT22;8313;49.894;8.084;2023-06-14T07:09:22;21.50;59.60
16408;DHT22;8313;49.894;8.084;2023-06-14T07:11:48;21.50;60.10
16408;DHT22;8313;49.894;8.084;2023-06-14T07:14:14;21.50;59.60
16408;DHT22;8313;49.894;8.084;2023-06-14T07:16:39;21.60;59.70
16408;DHT22;8313;49.894;8.084;2023-06-14T07:19:06;21.60;59.60
16408;DHT22;8313;49.894;8.084;2023-06-14T07:21:32;21.70;59.70
16408;DHT22;8313;49.894;8.084;2023-06-14T07:23:58;21.90;59.70
16408;DHT22;8313;49.894;8.084;2023-06-14T07:26:23;21.80;59.80
16408;DHT22;8313;49.894;8.084;2023-06-14T07:28:49;21.80;59.90
16408;DHT22;8313;49.894;8.084;2023-06-14T07:31:16;21.90;60.20
16408;DHT22;8313;49.894;8.084;2023-06-14T07:33:42;22.00;59.90
16408;DHT22;8313;49.894;8.084;2023-06-14T07:36:08;22.10;59.90
16408;DHT22;8313;49.894;8.084;2023-06-14T07:38:34;22.10;59.80
16408;DHT22;8313;49.894;8.084;2023-06-14T07:41:00;22.10;59.60
16408;DHT22;8313;49.894;8.084;2023-06-14T07:43:26;22.10;59.60
16408;DHT22;8313;49.894;8.084;2023-06-14T07:45:51;22.10;59.40
16408;DHT22;8313;49.894;8.084;2023-06-14T07:48:17;22.20;59.50
16408;DHT22;8313;49.894;8.084;2023-06-14T07:50:43;22.30;59.40
16408;DHT22;8313;49.894;8.084;2023-06-14T07:53:09;22.30;59.40
16408;DHT22;8313;49.894;8.084;2023-06-14T07:55:35;22.50;59.50
16408;DHT22;8313;49.894;8.084;2023-06-14T07:58:11;22.50;59.30
16408;DHT22;8313;49.894;8.084;2023-06-14T08:00:37;22.40;59.20
16408;DHT22;8313;49.894;8.084;2023-06-14T08:03:03;22.60;59.30
16408;DHT22;8313;49.894;8.084;2023-06-14T08:05:29;22.50;58.80
16408;DHT22;8313;49.894;8.084;2023-06-14T08:07:55;22.60;59.00
16408;DHT22;8313;49.894;8.084;2023-06-14T08:10:22;22.60;58.70
16408;DHT22;8313;49.894;8.084;2023-06-14T08:12:48;22.50;58.80
16408;DHT22;8313;49.894;8.084;2023-06-14T08:15:16;22.60;58.40
16408;DHT22;8313;49.894;8.084;2023-06-14T08:17:45;22.60;58.40
16408;DHT22;8313;49.894;8.084;2023-06-14T08:20:11;22.90;58.40
16408;DHT22;8313;49.894;8.084;2023-06-14T08:22:37;23.00;58.30
16408;DHT22;8313;49.894;8.084;2023-06-14T08:25:04;23.10;58.40
16408;DHT22;8313;49.894;8.084;2023-06-14T08:27:30;23.20;58.50
16408;DHT22;8313;49.894;8.084;2023-06-14T08:29:56;23.20;58.60
16408;DHT22;8313;49.894;8.084;2023-06-14T08:32:22;23.30;58.40
16408;DHT22;8313;49.894;8.084;2023-06-14T08:34:48;23.10;58.30
16408;DHT22;8313;49.894;8.084;2023-06-14T08:37:13;23.10;58.30
16408;DHT22;8313;49.894;8.084;2023-06-14T08:39:39;23.00;58.40
16408;DHT22;8313;49.894;8.084;2023-06-14T08:42:05;23.00;58.40
16408;DHT22;8313;49.894;8.084;2023-06-14T08:44:33;23.00;58.20
16408;DHT22;8313;49.894;8.084;2023-06-14T08:47:02;22.90;58.40
16408;DHT22;8313;49.894;8.084;2023-06-14T08:49:29;23.10;58.70
16408;DHT22;8313;49.894;8.084;2023-06-14T08:51:59;23.20;58.70
16408;DHT22;8313;49.894;8.084;2023-06-14T08:54:28;23.00;58.70
16408;DHT22;8313;49.894;8.084;2023-06-14T08:57:00;23.30;58.60
16408;DHT22;8313;49.894;8.084;2023-06-14T08:59:28;23.30;57.80
16408;DHT22;8313;49.894;8.084;2023-06-14T09:01:56;23.30;57.60
16408;DHT22;8313;49.894;8.084;2023-06-14T09:04:25;23.40;57.60
16408;DHT22;8313;49.894;8.084;2023-06-14T09:06:58;23.50;57.80
16408;DHT22;8313;49.894;8.084;2023-06-14T09:09:24;23.60;57.80
16408;DHT22;8313;49.894;8.084;2023-06-14T09:11:51;23.60;57.30
16408;DHT22;8313;49.894;8.084;2023-06-14T09:14:19;23.70;57.00
16408;DHT22;8313;49.894;8.084;2023-06-14T09:16:44;23.80;57.20
16408;DHT22;8313;49.894;8.084;2023-06-14T09:19:25;23.90;56.80
16408;DHT22;8313;49.894;8.084;2023-06-14T09:21:52;23.80;56.90
16408;DHT22;8313;49.894;8.084;2023-06-14T09:24:19;23.60;56.60
16408;DHT22;8313;49.894;8.084;2023-06-14T09:26:48;23.80;56.70
16408;DHT22;8313;49.894;8.084;2023-06-14T09:29:13;23.80;56.10
16408;DHT22;8313;49.894;8.084;2023-06-14T09:31:41;23.60;56.20
16408;DHT22;8313;49.894;8.084;2023-06-14T09:34:07;23.80;56.40
16408;DHT22;8313;49.894;8.084;2023-06-14T09:36:34;24.10;56.40
16408;DHT22;8313;49.894;8.084;2023-06-14T09:39:03;24.20;56.50
16408;DHT22;8313;49.894;8.084;2023-06-14T09:41:36;24.40;56.60
16408;DHT22;8313;49.894;8.084;2023-06-14T09:44:04;24.60;56.70
16408;DHT22;8313;49.894;8.084;2023-06-14T09:46:30;24.50;56.60
16408;DHT22;8313;49.894;8.084;2023-06-14T09:49:00;24.40;56.80
16408;DHT22;8313;49.894;8.084;2023-06-14T09:51:26;24.60;56.70
16408;DHT22;8313;49.894;8.084;2023-06-14T09:53:53;24.70;56.50
16408;DHT22;8313;49.894;8.084;2023-06-14T09:56:27;24.40;56.50
16408;DHT22;8313;49.894;8.084;2023-06-14T09:58:56;24.30;56.10
16408;DHT22;8313;49.894;8.084;2023-06-14T10:01:26;24.50;56.00
16408;DHT22;8313;49.894;8.084;2023-06-14T10:04:05;24.70;56.50
16408;DHT22;8313;49.894;8.084;2023-06-14T10:06:36;24.80;56.20
16408;DHT22;8313;49.894;8.084;2023-06-14T10:09:04;24.90;56.20
16408;DHT22;8313;49.894;8.084;2023-06-14T10:11:31;24.80;56.60
16408;DHT22;8313;49.894;8.084;2023-06-14T10:13:58;24.90;56.30
16408;DHT22;8313;49.894;8.084;2023-06-14T10:16:46;25.00;56.30
16408;DHT22;8313;49.894;8.084;2023-06-14T10:19:37;25.30;55.90
16408;DHT22;8313;49.894;8.084;2023-06-14T10:22:12;25.00;56.30
16408;DHT22;8313;49.894;8.084;2023-06-14T10:24:44;25.20;56.40
16408;DHT22;8313;49.894;8.084;2023-06-14T10:27:13;25.10;56.40
16408;DHT22;8313;49.894;8.084;2023-06-14T10:32:22;24.90;56.80
16408;DHT22;8313;49.894;8.084;2023-06-14T10:35:20;24.70;56.70
16408;DHT22;8313;49.894;8.084;2023-06-14T10:37:46;24.60;56.50
16408;DHT22;8313;49.894;8.084;2023-06-14T10:40:30;24.70;56.70
16408;DHT22;8313;49.894;8.084;2023-06-14T10:42:56;25.20;56.50
16408;DHT22;8313;49.894;8.084;2023-06-14T10:45:21;25.20;56.20
16408;DHT22;8313;49.894;8.084;2023-06-14T10:47:49;24.80;56.50
16408;DHT22;8313;49.894;8.084;2023-06-14T10:50:17;24.60;56.50
16408;DHT22;8313;49.894;8.084;2023-06-14T10:52:53;24.80;56.30
16408;DHT22;8313;49.894;8.084;2023-06-14T10:55:19;25.30;56.00
16408;DHT22;8313;49.894;8.084;2023-06-14T10:57:45;25.40;55.90
16408;DHT22;8313;49.894;8.084;2023-06-14T11:00:12;25.50;55.90
16408;DHT22;8313;49.894;8.084;2023-06-14T11:03:36;25.10;56.20
16408;DHT22;8313;49.894;8.084;2023-06-14T11:05:57;25.40;55.80
16408;DHT22;8313;49.894;8.084;2023-06-14T11:11:16;24.70;56.50
16408;DHT22;8313;49.894;8.084;2023-06-14T11:13:45;24.60;56.40
16408;DHT22;8313;49.894;8.084;2023-06-14T11:16:15;24.60;56.10
16408;DHT22;8313;49.894;8.084;2023-06-14T11:18:41;25.10;55.90
16408;DHT22;8313;49.894;8.084;2023-06-14T11:21:08;24.60;56.10
16408;DHT22;8313;49.894;8.084;2023-06-14T11:23:35;24.90;55.70
16408;DHT22;8313;49.894;8.084;2023-06-14T11:26:00;25.20;55.50
16408;DHT22;8313;49.894;8.084;2023-06-14T11:28:39;25.50;55.50
16408;DHT22;8313;49.894;8.084;2023-06-14T11:31:05;25.40;55.60
16408;DHT22;8313;49.894;8.084;2023-06-14T11:33:31;25.20;55.60
16408;DHT22;8313;49.894;8.084;2023-06-14T11:35:57;25.20;55.40
16408;DHT22;8313;49.894;8.084;2023-06-14T11:38:24;25.20;55.20
16408;DHT22;8313;49.894;8.084;2023-06-14T11:40:50;25.20;55.30
16408;DHT22;8313;49.894;8.084;2023-06-14T11:43:15;25.40;55.40
16408;DHT22;8313;49.894;8.084;2023-06-14T11:45:42;25.90;54.80
16408;DHT22;8313;49.894;8.084;2023-06-14T11:48:08;25.70;54.50
16408;DHT22;8313;49.894;8.084;2023-06-14T11:50:37;26.00;54.70
16408;DHT22;8313;49.894;8.084;2023-06-14T11:53:04;26.00;54.50
16408;DHT22;8313;49.894;8.084;2023-06-14T11:55:37;25.70;54.60
16408;DHT22;8313;49.894;8.084;2023-06-14T11:58:02;25.50;54.70
16408;DHT22;8313;49.894;8.084;2023-06-14T12:00:29;25.20;54.80
16408;DHT22;8313;49.894;8.084;2023-06-14T12:02:55;25.20;54.50
16408;DHT22;8313;49.894;8.084;2023-06-14T12:05:22;25.20;54.20
16408;DHT22;8313;49.894;8.084;2023-06-14T12:07:49;25.40;54.30
16408;DHT22;8313;49.894;8.084;2023-06-14T12:10:15;25.60;54.00
16408;DHT22;8313;49.894;8.084;2023-06-14T12:12:42;25.70;53.70
16408;DHT22;8313;49.894;8.084;2023-06-14T12:15:09;26.00;54.40
16408;DHT22;8313;49.894;8.084;2023-06-14T12:17:37;26.20;53.90
16408;DHT22;8313;49.894;8.084;2023-06-14T12:20:13;26.10;53.80
16408;DHT22;8313;49.894;8.084;2023-06-14T12:22:59;26.30;54.30
16408;DHT22;8313;49.894;8.084;2023-06-14T12:25:34;26.40;53.90
16408;DHT22;8313;49.894;8.084;2023-06-14T12:28:05;26.40;54.00
16408;DHT22;8313;49.894;8.084;2023-06-14T12:30:32;26.10;54.20
16408;DHT22;8313;49.894;8.084;2023-06-14T12:32:58;26.40;54.40
16408;DHT22;8313;49.894;8.084;2023-06-14T12:35:23;26.80;54.50
16408;DHT22;8313;49.894;8.084;2023-06-14T12:37:49;26.90;54.30
16408;DHT22;8313;49.894;8.084;2023-06-14T12:40:15;26.70;54.30
16408;DHT22;8313;49.894;8.084;2023-06-14T12:42:41;26.30;54.80
16408;DHT22;8313;49.894;8.084;2023-06-14T12:45:08;25.80;55.00
16408;DHT22;8313;49.894;8.084;2023-06-14T12:47:34;25.80;55.00
16408;DHT22;8313;49.894;8.084;2023-06-14T12:49:59;26.00;54.90
16408;DHT22;8313;49.894;8.084;2023-06-14T12:52:25;26.00;54.80
16408;DHT22;8313;49.894;8.084;2023-06-14T12:54:51;26.40;54.60
16408;DHT22;8313;49.894;8.084;2023-06-14T12:57:16;26.40;54.80
16408;DHT22;8313;49.894;8.084;2023-06-14T12:59:42;26.70;54.10
16408;DHT22;8313;49.894;8.084;2023-06-14T13:02:15;26.50;54.30
16408;DHT22;8313;49.894;8.084;2023-06-14T13:04:42;26.00;54.80
16408;DHT22;8313;49.894;8.084;2023-06-14T13:07:07;26.10;54.70
16408;DHT22;8313;49.894;8.084;2023-06-14T13:09:33;26.30;54.60
16408;DHT22;8313;49.894;8.084;2023-06-14T13:11:59;26.40;54.80
16408;DHT22;8313;49.894;8.084;2023-06-14T13:14:24;26.60;54.70
16408;DHT22;8313;49.894;8.084;2023-06-14T13:16:50;26.90;54.70
16408;DHT22;8313;49.894;8.084;2023-06-14T13:19:16;26.70;55.10
16408;DHT22;8313;49.894;8.084;2023-06-14T13:21:42;26.20;55.40
16408;DHT22;8313;49.894;8.084;2023-06-14T13:24:07;26.20;55.50
16408;DHT22;8313;49.894;8.084;2023-06-14T13:26:33;26.20;55.60
16408;DHT22;8313;49.894;8.084;2023-06-14T13:28:59;26.10;55.50
16408;DHT22;8313;49.894;8.084;2023-06-14T13:31:25;26.10;55.30
16408;DHT22;8313;49.894;8.084;2023-06-14T13:33:51;26.40;55.10
16408;DHT22;8313;49.894;8.084;2023-06-14T13:36:16;26.60;54.90
16408;DHT22;8313;49.894;8.084;2023-06-14T13:38:42;26.60;55.00
16408;DHT22;8313;49.894;8.084;2023-06-14T13:41:08;26.40;54.90
16408;DHT22;8313;49.894;8.084;2023-06-14T13:43:33;26.50;54.80
16408;DHT22;8313;49.894;8.084;2023-06-14T13:45:59;26.30;54.90
16408;DHT22;8313;49.894;8.084;2023-06-14T13:48:26;26.10;55.50
16408;DHT22;8313;49.894;8.084;2023-06-14T13:50:51;25.90;55.50
16408;DHT22;8313;49.894;8.084;2023-06-14T13:53:17;25.80;55.80
16408;DHT22;8313;49.894;8.084;2023-06-14T13:55:43;25.90;55.70
16408;DHT22;8313;49.894;8.084;2023-06-14T13:58:08;26.00;55.80
16408;DHT22;8313;49.894;8.084;2023-06-14T14:00:34;26.00;55.60
16408;DHT22;8313;49.894;8.084;2023-06-14T14:03:03;26.00;55.20
16408;DHT22;8313;49.894;8.084;2023-06-14T14:05:28;26.20;55.40
16408;DHT22;8313;49.894;8.084;2023-06-14T14:07:56;25.90;55.20
16408;DHT22;8313;49.894;8.084;2023-06-14T14:10:23;25.90;55.40
16408;DHT22;8313;49.894;8.084;2023-06-14T14:12:50;25.60;55.40
16408;DHT22;8313;49.894;8.084;2023-06-14T14:15:16;25.60;55.40
16408;DHT22;8313;49.894;8.084;2023-06-14T14:17:42;25.50;55.30
16408;DHT22;8313;49.894;8.084;2023-06-14T14:20:08;25.50;55.10
16408;DHT22;8313;49.894;8.084;2023-06-14T14:22:34;25.50;54.70
16408;DHT22;8313;49.894;8.084;2023-06-14T14:25:00;25.50;54.30
16408;DHT22;8313;49.894;8.084;2023-06-14T14:27:26;25.70;54.40
16408;DHT22;8313;49.894;8.084;2023-06-14T14:29:51;25.90;54.70
16408;DHT22;8313;49.894;8.084;2023-06-14T14:32:17;25.90;54.50
16408;DHT22;8313;49.894;8.084;2023-06-14T14:34:43;25.90;54.90
16408;DHT22;8313;49.894;8.084;2023-06-14T14:37:08;25.90;54.80
16408;DHT22;8313;49.894;8.084;2023-06-14T14:39:36;26.00;54.50
16408;DHT22;8313;49.894;8.084;2023-06-14T14:42:02;26.00;54.50
16408;DHT22;8313;49.894;8.084;2023-06-14T14:44:28;25.90;54.40
16408;DHT22;8313;49.894;8.084;2023-06-14T14:46:53;25.90;54.70
16408;DHT22;8313;49.894;8.084;2023-06-14T14:49:19;25.60;54.80
16408;DHT22;8313;49.894;8.084;2023-06-14T14:51:45;25.50;54.90
16408;DHT22;8313;49.894;8.084;2023-06-14T14:54:11;25.50;54.90
16408;DHT22;8313;49.894;8.084;2023-06-14T14:56:37;25.60;55.10
16408;DHT22;8313;49.894;8.084;2023-06-14T14:59:03;25.60;54.80
16408;DHT22;8313;49.894;8.084;2023-06-14T15:01:29;25.50;54.30
16408;DHT22;8313;49.894;8.084;2023-06-14T15:03:55;25.40;54.00
16408;DHT22;8313;49.894;8.084;2023-06-14T15:06:21;25.40;53.80
16408;DHT22;8313;49.894;8.084;2023-06-14T15:08:46;25.50;54.00
16408;DHT22;8313;49.894;8.084;2023-06-14T15:11:12;25.60;53.70
16408;DHT22;8313;49.894;8.084;2023-06-14T15:13:37;25.60;54.00
16408;DHT22;8313;49.894;8.084;2023-06-14T15:16:03;25.60;53.80
16408;DHT22;8313;49.894;8.084;2023-06-14T15:18:29;25.60;53.60
16408;DHT22;8313;49.894;8.084;2023-06-14T15:20:55;25.60;54.10
16408;DHT22;8313;49.894;8.084;2023-06-14T15:23:20;25.70;54.30
16408;DHT22;8313;49.894;8.084;2023-06-14T15:25:47;25.60;54.50
16408;DHT22;8313;49.894;8.084;2023-06-14T15:28:13;25.60;54.20
16408;DHT22;8313;49.894;8.084;2023-06-14T15:30:39;25.60;54.30
16408;DHT22;8313;49.894;8.084;2023-06-14T15:33:05;25.50;54.20
16408;DHT22;8313;49.894;8.084;2023-06-14T15:35:31;25.50;54.50
16408;DHT22;8313;49.894;8.084;2023-06-14T15:37:56;25.40;54.40
16408;DHT22;8313;49.894;8.084;2023-06-14T15:40:22;25.60;54.00
16408;DHT22;8313;49.894;8.084;2023-06-14T15:42:48;25.60;54.20
16408;DHT22;8313;49.894;8.084;2023-06-14T15:45:13;25.60;54.30
16408;DHT22;8313;49.894;8.084;2023-06-14T15:47:39;25.70;54.30
16408;DHT22;8313;49.894;8.084;2023-06-14T15:50:05;25.50;54.20
16408;DHT22;8313;49.894;8.084;2023-06-14T15:52:33;25.40;54.10
16408;DHT22;8313;49.894;8.084;2023-06-14T15:54:59;25.40;53.80